Time;durP1;ratioP1;P1;durP2;ratioP2;P2;SDS_P1;SDS_P2;PMS_P1;PMS_P2;Temp;Humidity;BMP_temperature;BMP_pressure;BME280_temperature;BME280_humidity;BME280_pressure;Samples;Min_cycle;Max_cycle;Signal;HPM_P1;HPM_P2
2021/01/17 00:02:20;;;;;;;6.47;5.88;;;-0.50;99.90;;;;;;5108971;28;20358;-79
2021/01/17 00:04:46;;;;;;;6.50;5.90;;;-0.50;99.90;;;;;;5107060;28;20308;-79
2021/01/17 00:07:13;;;;;;;6.95;6.07;;;-0.50;99.90;;;;;;5107761;28;20198;-81
2021/01/17 00:09:40;;;;;;;6.25;5.57;;;-0.50;99.90;;;;;;5096736;28;20212;-81
2021/01/17 00:12:08;;;;;;;6.07;5.43;;;-0.40;99.90;;;;;;5096352;28;20208;-80
2021/01/17 00:14:35;;;;;;;6.65;5.82;;;-0.50;99.90;;;;;;5096501;28;20221;-83
2021/01/17 00:17:01;;;;;;;6.25;5.60;;;-0.80;99.90;;;;;;5095527;28;20682;-81
2021/01/17 00:19:28;;;;;;;8.35;5.50;;;-0.70;99.90;;;;;;5096339;28;20239;-82
2021/01/17 00:21:54;;;;;;;6.97;5.97;;;-0.60;99.90;;;;;;5101826;28;20202;-80
2021/01/17 00:24:21;;;;;;;6.35;5.15;;;-0.60;99.90;;;;;;5105308;28;20255;-82
2021/01/17 00:26:48;;;;;;;6.85;6.13;;;-0.60;99.90;;;;;;5097186;28;20356;-82
2021/01/17 00:29:14;;;;;;;7.47;5.63;;;-0.60;99.90;;;;;;5097077;28;20708;-82
2021/01/17 00:31:41;;;;;;;7.25;6.50;;;-0.60;99.90;;;;;;5098563;28;20221;-80
2021/01/17 00:34:07;;;;;;;7.53;5.55;;;-0.60;99.90;;;;;;5101640;28;20214;-82
2021/01/17 00:36:38;;;;;;;7.13;6.03;;;-0.60;99.90;;;;;;5100441;28;20226;-82
2021/01/17 00:39:06;;;;;;;6.78;5.90;;;-0.60;99.90;;;;;;5101795;28;20213;-81
2021/01/17 00:41:32;;;;;;;6.35;5.75;;;-0.60;99.90;;;;;;5101815;28;20658;-81
2021/01/17 00:44:00;;;;;;;6.60;6.00;;;-0.70;99.90;;;;;;5102432;28;20588;-81
2021/01/17 00:46:26;;;;;;;9.90;6.57;;;-0.80;99.90;;;;;;5102351;28;20225;-81
2021/01/17 00:48:52;;;;;;;8.75;6.13;;;-0.80;99.90;;;;;;5102295;28;20208;-81
2021/01/17 00:51:19;;;;;;;9.40;6.47;;;-0.80;99.90;;;;;;5102272;28;20206;-81
2021/01/17 00:53:46;;;;;;;11.50;8.20;;;-0.70;99.90;;;;;;5104456;28;20577;-81
2021/01/17 00:56:12;;;;;;;10.48;7.60;;;-0.70;99.90;;;;;;5106092;28;20293;-81
2021/01/17 00:58:40;;;;;;;9.52;7.38;;;-0.70;99.90;;;;;;5113235;28;20221;-81
2021/01/17 01:01:08;;;;;;;12.05;7.97;;;-0.80;99.90;;;;;;5109550;28;20197;-81
2021/01/17 01:03:34;;;;;;;10.90;7.50;;;-0.70;99.90;;;;;;5102574;28;20206;-80
2021/01/17 01:06:01;;;;;;;13.98;8.32;;;-0.70;99.90;;;;;;5103022;28;20309;-82
2021/01/17 01:08:27;;;;;;;9.35;7.72;;;-0.80;99.90;;;;;;5102760;28;20213;-81
2021/01/17 01:10:53;;;;;;;9.82;7.63;;;-0.80;99.90;;;;;;5100312;28;20250;-79
2021/01/17 01:13:20;;;;;;;10.93;7.72;;;-0.70;99.90;;;;;;5100816;28;20202;-81
2021/01/17 01:15:46;;;;;;;10.00;6.45;;;-0.80;99.90;;;;;;5100747;28;20698;-81
2021/01/17 01:18:13;;;;;;;10.98;7.80;;;-0.80;99.90;;;;;;5100759;28;20327;-79
2021/01/17 01:20:41;;;;;;;13.50;8.50;;;-0.70;99.90;;;;;;5100702;28;20574;-81
2021/01/17 01:23:08;;;;;;;12.23;8.20;;;-0.80;99.90;;;;;;5100983;28;20224;-79
2021/01/17 01:25:34;;;;;;;9.80;7.40;;;-0.80;99.90;;;;;;5101994;28;20249;-80
2021/01/17 01:28:00;;;;;;;10.55;7.63;;;-0.90;99.90;;;;;;5103448;28;20261;-79
2021/01/17 01:30:26;;;;;;;10.38;7.05;;;-0.80;99.90;;;;;;5102359;28;20284;-80
2021/01/17 01:32:53;;;;;;;9.10;7.00;;;-0.90;99.90;;;;;;5103351;28;20201;-80
2021/01/17 01:35:20;;;;;;;9.85;7.13;;;-0.80;99.90;;;;;;5101339;28;20285;-79
2021/01/17 01:37:46;;;;;;;8.55;6.07;;;-0.80;99.90;;;;;;5100359;28;20212;-81
2021/01/17 01:40:13;;;;;;;8.43;7.35;;;-0.90;99.90;;;;;;5098619;28;20232;-80
2021/01/17 01:42:43;;;;;;;7.90;7.10;;;-0.90;99.90;;;;;;5099624;28;20201;-81
2021/01/17 01:45:11;;;;;;;7.63;6.80;;;-0.90;99.90;;;;;;5100299;28;20721;-81
2021/01/17 01:47:37;;;;;;;9.40;6.85;;;-0.90;99.90;;;;;;5103372;28;20227;-80
2021/01/17 01:50:05;;;;;;;9.50;7.15;;;-0.90;99.90;;;;;;5104874;28;20194;-83
2021/01/17 01:52:33;;;;;;;8.18;6.20;;;-0.80;99.90;;;;;;5101171;28;20265;-82
2021/01/17 01:55:00;;;;;;;9.73;6.93;;;-0.90;99.90;;;;;;5099885;28;20229;-81
2021/01/17 01:57:26;;;;;;;9.63;6.85;;;-1.00;99.90;;;;;;5100480;28;20202;-83
2021/01/17 01:59:54;;;;;;;8.68;6.28;;;-0.90;99.90;;;;;;5100830;28;20213;-83
2021/01/17 02:02:22;;;;;;;8.75;7.28;;;-0.90;99.90;;;;;;5100976;28;20201;-82
2021/01/17 02:04:48;;;;;;;11.40;7.40;;;-1.00;99.90;;;;;;5100373;28;20289;-80
2021/01/17 02:07:48;;;;;;;7.90;7.10;;;-0.90;99.90;;;;;;5100051;28;20206;-80
2021/01/17 02:10:16;;;;;;;9.68;6.80;;;-0.80;99.90;;;;;;5099193;28;20186;-82
2021/01/17 02:12:46;;;;;;;8.57;7.30;;;-0.90;99.90;;;;;;5099857;28;20205;-81
2021/01/17 02:15:25;;;;;;;9.38;7.20;;;-0.80;99.90;;;;;;5099553;28;20224;-82
2021/01/17 02:17:53;;;;;;;9.15;6.93;;;-0.90;99.90;;;;;;5100907;28;20631;-82
2021/01/17 02:20:22;;;;;;;12.73;7.55;;;-0.90;99.90;;;;;;5098892;28;20217;-82
2021/01/17 02:22:58;;;;;;;9.85;7.20;;;-0.90;99.90;;;;;;5100479;28;20204;-82
2021/01/17 02:25:26;;;;;;;11.15;7.20;;;-0.90;99.90;;;;;;5100919;28;20813;-80
2021/01/17 02:27:54;;;;;;;11.48;7.72;;;-0.90;99.90;;;;;;5114938;28;20206;-80
2021/01/17 02:30:23;;;;;;;10.27;7.00;;;-0.80;99.90;;;;;;5100085;28;20201;-82
2021/01/17 02:32:57;;;;;;;10.00;7.50;;;-1.00;99.90;;;;;;5098335;28;20206;-82
2021/01/17 02:35:24;;;;;;;12.75;7.50;;;-1.00;99.90;;;;;;5098511;28;20226;-82
2021/01/17 02:38:03;;;;;;;9.85;7.97;;;-0.90;99.90;;;;;;5099231;28;20212;-82
2021/01/17 02:40:53;;;;;;;9.30;6.72;;;-0.80;99.90;;;;;;5098442;28;20646;-82
2021/01/17 02:43:20;;;;;;;10.40;7.88;;;-0.80;99.90;;;;;;5098424;28;20583;-81
2021/01/17 02:45:47;;;;;;;12.75;8.00;;;-0.80;99.90;;;;;;5098201;28;20224;-82
2021/01/17 02:48:13;;;;;;;7.57;6.78;;;-0.70;99.90;;;;;;5097310;28;20674;-81
2021/01/17 02:50:39;;;;;;;8.88;7.40;;;-0.90;99.90;;;;;;5097986;28;20208;-81
2021/01/17 02:53:14;;;;;;;10.65;7.57;;;-0.80;99.90;;;;;;5097385;28;20206;-82
2021/01/17 02:55:41;;;;;;;7.97;6.60;;;-0.80;99.90;;;;;;5096779;28;20665;-81
2021/01/17 02:58:09;;;;;;;12.38;7.78;;;-0.70;99.90;;;;;;5097637;28;20198;-81
2021/01/17 03:00:40;;;;;;;9.63;7.00;;;-0.80;99.90;;;;;;5097651;28;20278;-82
2021/01/17 03:03:08;;;;;;;12.15;8.18;;;-0.70;99.90;;;;;;5096567;28;20192;-82
2021/01/17 03:05:36;;;;;;;8.48;7.60;;;-0.80;99.90;;;;;;5097584;28;20229;-81
2021/01/17 03:08:05;;;;;;;10.05;7.57;;;-0.70;99.90;;;;;;5101106;28;20297;-80
2021/01/17 03:10:31;;;;;;;9.35;8.07;;;-0.60;99.90;;;;;;5100017;28;20210;-81
2021/01/17 03:13:01;;;;;;;8.43;6.50;;;-0.40;99.90;;;;;;5099243;28;20206;-81
2021/01/17 03:15:32;;;;;;;10.15;7.30;;;-0.50;99.90;;;;;;5096386;28;20233;-80
2021/01/17 03:17:58;;;;;;;9.43;7.38;;;-0.70;99.90;;;;;;5096961;28;20243;-80
2021/01/17 03:20:24;;;;;;;9.60;7.43;;;-0.60;99.90;;;;;;5096001;28;20226;-80
2021/01/17 03:22:51;;;;;;;9.30;7.72;;;-0.80;99.90;;;;;;5095804;28;20205;-81
2021/01/17 03:25:17;;;;;;;10.35;7.68;;;-0.90;99.90;;;;;;5095798;28;20228;-80
2021/01/17 03:27:43;;;;;;;11.35;7.88;;;-0.80;99.90;;;;;;5096262;28;20288;-80
2021/01/17 03:30:11;;;;;;;9.15;7.80;;;-0.70;99.90;;;;;;5095856;28;20615;-80
2021/01/17 03:32:41;;;;;;;10.38;8.02;;;-0.70;99.90;;;;;;5096174;28;20301;-80
2021/01/17 03:35:09;;;;;;;10.20;6.88;;;-0.70;99.90;;;;;;5097375;28;20222;-80
2021/01/17 03:37:35;;;;;;;7.75;6.72;;;-0.90;99.90;;;;;;5096381;28;20206;-81
2021/01/17 03:40:03;;;;;;;8.80;6.97;;;-0.90;99.90;;;;;;5096436;28;20224;-81
2021/01/17 03:42:29;;;;;;;10.13;7.22;;;-0.80;99.90;;;;;;5096510;28;20202;-81
2021/01/17 03:44:55;;;;;;;9.63;6.78;;;-0.90;99.90;;;;;;5096427;28;20661;-80
2021/01/17 03:47:22;;;;;;;8.93;6.38;;;-0.90;99.90;;;;;;5098746;28;20216;-81
2021/01/17 03:49:49;;;;;;;9.73;6.45;;;-0.90;99.90;;;;;;5096635;28;20198;-81
2021/01/17 03:52:15;;;;;;;12.05;7.22;;;-0.80;99.90;;;;;;5096540;28;20312;-81
2021/01/17 03:57:15;;;;;;;8.65;6.97;;;-0.80;99.90;;;;;;5094582;28;20608;-81
2021/01/17 03:59:41;;;;;;;10.93;7.97;;;-0.90;99.90;;;;;;5095476;28;20230;-81
2021/01/17 04:02:07;;;;;;;11.70;7.78;;;-0.90;99.90;;;;;;5096197;28;20207;-81
2021/01/17 04:04:34;;;;;;;8.40;6.50;;;-0.80;99.90;;;;;;5096583;28;20297;-82
2021/01/17 04:07:01;;;;;;;8.07;6.55;;;-0.70;99.90;;;;;;5060493;28;20276;-81
2021/01/17 04:09:27;;;;;;;8.10;6.38;;;-0.80;99.90;;;;;;5033387;28;20265;-80
2021/01/17 04:11:53;;;;;;;8.20;6.15;;;-0.60;99.90;;;;;;5033555;28;20357;-81
2021/01/17 04:14:20;;;;;;;9.45;7.28;;;-0.70;99.90;;;;;;5035003;28;20203;-81
2021/01/17 04:16:50;;;;;;;7.45;6.15;;;-0.90;99.90;;;;;;5033992;28;20267;-82
2021/01/17 04:19:16;;;;;;;10.90;7.18;;;-0.90;99.90;;;;;;5024977;28;20317;-82
2021/01/17 04:21:43;;;;;;;10.85;8.15;;;-0.90;99.90;;;;;;5032987;28;20219;-82
2021/01/17 04:24:10;;;;;;;9.10;7.13;;;-0.90;99.90;;;;;;5034549;28;20244;-82
2021/01/17 04:26:36;;;;;;;10.05;7.95;;;-1.00;99.90;;;;;;5033714;28;20220;-81
2021/01/17 04:29:03;;;;;;;12.73;8.23;;;-1.00;99.90;;;;;;5028955;28;20192;-81
2021/01/17 04:31:39;;;;;;;10.57;7.78;;;-1.00;99.90;;;;;;5034899;28;20235;-81
2021/01/17 04:34:05;;;;;;;14.30;9.13;;;-1.00;99.90;;;;;;5035400;28;20185;-80
2021/01/17 04:36:31;;;;;;;13.38;8.27;;;-1.20;99.90;;;;;;5035216;28;20224;-81
2021/01/17 04:38:58;;;;;;;9.15;7.57;;;-1.20;99.90;;;;;;5035154;28;20335;-83
2021/01/17 04:41:28;;;;;;;12.63;8.85;;;-1.10;99.90;;;;;;5035209;28;20208;-82
2021/01/17 04:43:57;;;;;;;10.32;7.13;;;-1.00;99.90;;;;;;5035216;28;20200;-80
2021/01/17 04:46:25;;;;;;;10.65;8.10;;;-0.90;99.90;;;;;;5035146;28;20271;-82
2021/01/17 04:48:58;;;;;;;13.18;8.27;;;-0.90;99.90;;;;;;5035384;28;20208;-80
2021/01/17 04:51:27;;;;;;;9.65;6.75;;;-1.00;99.90;;;;;;5034800;28;20189;-82
2021/01/17 04:53:54;;;;;;;10.68;8.40;;;-1.00;99.90;;;;;;5034105;28;20281;-82
2021/01/17 04:56:26;;;;;;;9.30;7.35;;;-1.10;99.90;;;;;;5034604;28;20252;-82
2021/01/17 04:59:10;;;;;;;11.13;8.20;;;-1.00;99.90;;;;;;5034669;28;20244;-82
2021/01/17 05:01:53;;;;;;;21.50;8.25;;;-1.10;99.90;;;;;;5034469;28;20241;-82
2021/01/17 05:04:45;;;;;;;13.85;8.70;;;-1.00;99.90;;;;;;5034282;28;20230;-81
2021/01/17 05:07:16;;;;;;;12.70;8.77;;;-1.10;99.90;;;;;;5033346;28;20644;-82
2021/01/17 05:09:49;;;;;;;9.93;7.38;;;-1.10;99.90;;;;;;5033139;28;20244;-81
2021/01/17 05:12:16;;;;;;;11.07;7.97;;;-1.00;99.90;;;;;;5033102;28;20257;-82
2021/01/17 05:14:48;;;;;;;12.05;8.73;;;-1.00;99.90;;;;;;5033420;28;20223;-82
2021/01/17 05:17:21;;;;;;;9.85;7.22;;;-1.00;99.90;;;;;;5034637;28;20177;-82
2021/01/17 05:19:48;;;;;;;11.90;7.93;;;-1.10;99.90;;;;;;5033951;28;20208;-82
2021/01/17 05:22:15;;;;;;;11.55;7.47;;;-1.10;99.90;;;;;;5030927;28;20272;-81
2021/01/17 05:24:43;;;;;;;12.05;9.15;;;-1.10;99.90;;;;;;5028579;28;20228;-82
2021/01/17 05:27:09;;;;;;;11.15;7.80;;;-0.90;99.90;;;;;;5025681;28;20223;-82
2021/01/17 05:29:36;;;;;;;12.30;7.90;;;-0.80;99.90;;;;;;5019867;28;20295;-82
2021/01/17 05:32:05;;;;;;;10.75;8.30;;;-0.90;99.90;;;;;;5019051;28;20215;-82
2021/01/17 05:34:33;;;;;;;10.27;8.50;;;-0.80;99.90;;;;;;5017803;28;20215;-83
2021/01/17 05:37:04;;;;;;;13.52;9.00;;;-0.80;99.90;;;;;;5018198;28;20232;-83
2021/01/17 05:39:31;;;;;;;13.10;8.50;;;-0.80;99.90;;;;;;5018288;28;20220;-81
2021/01/17 05:42:07;;;;;;;11.55;8.23;;;-0.70;99.90;;;;;;5019304;28;20200;-82
2021/01/17 05:44:34;;;;;;;11.07;8.13;;;-0.90;99.90;;;;;;5016983;28;20212;-84
2021/01/17 05:47:07;;;;;;;14.60;8.63;;;-0.90;99.90;;;;;;5017122;28;20566;-82
2021/01/17 05:49:36;;;;;;;12.07;8.50;;;-0.90;99.90;;;;;;5017211;28;20189;-81
2021/01/17 05:52:13;;;;;;;12.40;8.50;;;-0.80;99.90;;;;;;5016497;28;20475;-81
2021/01/17 05:54:41;;;;;;;11.88;8.55;;;-0.80;99.90;;;;;;5018065;28;20767;-82
2021/01/17 05:57:13;;;;;;;9.57;8.45;;;-0.70;99.90;;;;;;5015494;28;20227;-82
2021/01/17 05:59:39;;;;;;;14.80;8.77;;;-0.70;99.90;;;;;;5015984;28;20389;-82
2021/01/17 06:02:13;;;;;;;8.57;7.35;;;-0.70;99.90;;;;;;5016825;28;20205;-82
2021/01/17 06:04:41;;;;;;;12.15;8.85;;;-0.70;99.90;;;;;;5016112;28;20219;-84
2021/01/17 06:07:08;;;;;;;11.25;8.32;;;-0.80;99.90;;;;;;5016262;28;20234;-80
2021/01/17 06:09:36;;;;;;;11.43;7.75;;;-0.90;99.90;;;;;;5015663;28;20576;-81
2021/01/17 06:12:04;;;;;;;12.55;7.85;;;-1.00;99.90;;;;;;5015975;28;20207;-81
2021/01/17 06:14:31;;;;;;;10.27;7.55;;;-0.90;99.90;;;;;;5015758;28;20204;-81
2021/01/17 06:16:59;;;;;;;11.63;7.85;;;-0.90;99.90;;;;;;5015235;28;20228;-81
2021/01/17 06:19:35;;;;;;;11.20;7.60;;;-0.90;99.90;;;;;;5015305;28;20269;-81
2021/01/17 06:22:04;;;;;;;10.57;6.40;;;-0.70;99.90;;;;;;5014975;28;20645;-82
2021/01/17 06:24:39;;;;;;;9.68;7.18;;;-0.80;99.90;;;;;;5015986;28;20204;-83
2021/01/17 06:27:07;;;;;;;11.35;8.20;;;-0.80;99.90;;;;;;5016524;28;20644;-81
2021/01/17 06:29:38;;;;;;;9.40;7.60;;;-0.70;99.90;;;;;;5022950;28;20201;-81
2021/01/17 06:32:13;;;;;;;7.88;6.47;;;-0.70;99.90;;;;;;5036362;28;20227;-81
2021/01/17 06:34:45;;;;;;;8.48;6.85;;;-0.60;99.90;;;;;;5037244;28;20199;-80
2021/01/17 06:37:13;;;;;;;7.93;6.75;;;-0.60;99.90;;;;;;5036200;28;20633;-81
2021/01/17 06:39:48;;;;;;;11.20;7.05;;;-0.80;99.90;;;;;;5036389;28;20224;-81
2021/01/17 06:42:16;;;;;;;11.55;7.80;;;-0.70;99.90;;;;;;5036471;28;20205;-81
2021/01/17 06:44:43;;;;;;;12.93;7.03;;;-0.70;99.90;;;;;;5036190;28;20264;-81
2021/01/17 06:47:20;;;;;;;10.70;7.95;;;-0.80;99.90;;;;;;5036412;28;20208;-81
2021/01/17 06:49:48;;;;;;;11.15;7.13;;;-0.70;99.90;;;;;;5036124;28;20267;-80
2021/01/17 06:52:16;;;;;;;13.20;8.88;;;-0.70;99.90;;;;;;5022377;28;20446;-80
2021/01/17 06:54:44;;;;;;;10.80;8.20;;;-0.60;99.90;;;;;;5016402;28;20459;-80
2021/01/17 06:57:11;;;;;;;10.55;8.85;;;-0.70;99.90;;;;;;5017350;28;20295;-81
2021/01/17 06:59:39;;;;;;;10.13;8.15;;;-0.80;99.90;;;;;;5017623;28;20228;-80
2021/01/17 07:02:39;;;;;;;13.18;7.97;;;-0.80;99.90;;;;;;5016011;28;20200;-81
2021/01/17 07:05:57;;;;;;;13.40;9.13;;;-0.80;99.90;;;;;;5016028;28;20220;-81
2021/01/17 07:08:50;;;;;;;10.68;7.20;;;-0.80;99.90;;;;;;4976607;28;20226;-80
2021/01/17 07:11:45;;;;;;;11.18;7.35;;;-0.90;99.90;;;;;;5054493;28;20195;-80
2021/01/17 07:14:16;;;;;;;9.60;7.50;;;-0.80;99.90;;;;;;5015799;28;20443;-81
2021/01/17 07:16:46;;;;;;;11.82;8.35;;;-0.70;99.90;;;;;;5014894;28;20265;-80
2021/01/17 07:19:21;;;;;;;9.00;7.53;;;-0.70;99.90;;;;;;5014746;28;20663;-80
2021/01/17 07:21:50;;;;;;;11.75;8.18;;;-0.60;99.90;;;;;;5017285;28;20192;-80
2021/01/17 07:24:20;;;;;;;8.88;6.70;;;-0.60;99.90;;;;;;5019606;28;20212;-81
2021/01/17 07:27:22;;;;;;;9.73;6.80;;;-0.50;99.90;;;;;;5018745;28;20585;-81
2021/01/17 07:29:51;;;;;;;8.65;7.50;;;-0.50;99.90;;;;;;5017766;28;20214;-83
2021/01/17 07:32:34;;;;;;;7.90;7.20;;;-0.50;99.90;;;;;;5015402;28;20608;-82
2021/01/17 07:35:06;;;;;;;8.77;6.38;;;-0.60;99.90;;;;;;5021731;28;20221;-82
2021/01/17 07:37:34;;;;;;;10.00;6.88;;;-0.60;99.90;;;;;;5033649;28;20255;-82
2021/01/17 07:40:08;;;;;;;12.55;7.47;;;-0.60;99.90;;;;;;5029966;28;20307;-82
2021/01/17 07:42:36;;;;;;;7.32;6.50;;;-0.60;99.90;;;;;;5015489;28;20219;-82
2021/01/17 07:45:18;;;;;;;6.88;6.22;;;-0.60;99.90;;;;;;5015059;28;20235;-82
2021/01/17 07:47:46;;;;;;;9.30;6.18;;;-0.60;99.90;;;;;;5015138;28;20522;-82
2021/01/17 07:50:13;;;;;;;9.95;7.20;;;-0.60;99.90;;;;;;5027265;28;20458;-81
2021/01/17 07:52:47;;;;;;;9.43;7.78;;;-0.70;99.90;;;;;;5026968;28;20272;-81
2021/01/17 07:55:19;;;;;;;9.57;7.15;;;-0.60;99.90;;;;;;5027450;28;20243;-82
2021/01/17 07:57:48;;;;;;;9.00;6.40;;;-0.70;99.90;;;;;;5028784;28;20275;-81
2021/01/17 08:00:15;;;;;;;7.68;6.63;;;-0.60;99.90;;;;;;5025379;28;20252;-82
2021/01/17 08:02:48;;;;;;;8.18;6.72;;;-0.70;99.90;;;;;;5016937;28;20204;-82
2021/01/17 08:05:15;;;;;;;10.18;7.63;;;-0.50;99.90;;;;;;5029660;28;20244;-81
2021/01/17 08:07:41;;;;;;;10.75;8.45;;;-0.40;99.90;;;;;;5029457;28;20296;-81
2021/01/17 08:10:08;;;;;;;8.00;6.43;;;-0.50;99.90;;;;;;5026690;28;20265;-82
2021/01/17 08:12:41;;;;;;;8.55;7.68;;;-0.50;99.90;;;;;;5022602;28;20299;-82
2021/01/17 08:15:16;;;;;;;12.02;7.93;;;-0.50;99.90;;;;;;5019658;28;20269;-81
2021/01/17 08:17:44;;;;;;;8.18;6.68;;;-0.40;99.90;;;;;;5016335;28;20447;-82
2021/01/17 08:20:21;;;;;;;8.98;7.45;;;-0.30;99.90;;;;;;5014167;28;20370;-82
2021/01/17 08:22:48;;;;;;;9.68;8.13;;;-0.50;99.90;;;;;;5014413;28;20191;-82
2021/01/17 08:25:56;;;;;;;10.90;8.10;;;-0.50;99.90;;;;;;5013981;28;20242;-83
2021/01/17 08:28:38;;;;;;;10.07;7.90;;;-0.60;99.90;;;;;;5014262;28;20291;-81
2021/01/17 08:31:43;;;;;;;10.38;7.90;;;-0.50;99.90;;;;;;5014279;28;20242;-82
2021/01/17 08:34:15;;;;;;;11.43;8.60;;;-0.50;99.90;;;;;;5012236;28;20942;-81
2021/01/17 08:36:43;;;;;;;10.10;8.20;;;-0.50;99.90;;;;;;5017633;28;20566;-80
2021/01/17 08:39:10;;;;;;;12.35;8.73;;;-0.60;99.90;;;;;;5015599;28;20482;-80
2021/01/17 08:41:39;;;;;;;10.13;8.07;;;-0.50;99.90;;;;;;5014372;28;20219;-81
2021/01/17 08:44:08;;;;;;;9.23;7.97;;;-0.50;99.90;;;;;;5014075;28;20446;-80
2021/01/17 08:46:40;;;;;;;8.63;7.72;;;-0.50;99.90;;;;;;5015786;28;20232;-81
2021/01/17 08:49:08;;;;;;;9.18;7.38;;;-0.40;99.90;;;;;;5018716;28;20223;-80
2021/01/17 08:51:37;;;;;;;16.45;9.68;;;-0.40;99.90;;;;;;5014037;28;20211;-80
2021/01/17 08:54:28;;;;;;;10.50;9.50;;;-0.30;99.90;;;;;;5015744;28;20208;-81
2021/01/17 08:56:55;;;;;;;13.13;9.48;;;-0.30;99.90;;;;;;5014731;28;20442;-81
2021/01/17 08:59:35;;;;;;;11.67;8.30;;;-0.30;99.90;;;;;;5015286;28;20487;-80
2021/01/17 09:02:02;;;;;;;11.20;9.47;;;-0.30;99.90;;;;;;5015045;28;20530;-81
2021/01/17 09:04:29;;;;;;;11.63;10.10;;;-0.30;99.90;;;;;;5018489;28;20451;-80
2021/01/17 09:06:56;;;;;;;12.52;8.98;;;-0.40;99.90;;;;;;5019225;28;20546;-81
2021/01/17 09:09:25;;;;;;;11.73;8.55;;;-0.30;99.90;;;;;;5017723;28;20252;-80
2021/01/17 09:11:52;;;;;;;9.77;8.55;;;-0.20;99.90;;;;;;5015624;28;20212;-80
2021/01/17 09:14:30;;;;;;;9.82;8.18;;;-0.20;99.90;;;;;;5015415;28;20200;-80
2021/01/17 09:16:59;;;;;;;10.18;8.45;;;-0.30;99.90;;;;;;5015717;28;20228;-82
2021/01/17 09:19:29;;;;;;;11.77;8.87;;;-0.20;99.90;;;;;;5016740;28;20446;-81
2021/01/17 09:21:57;;;;;;;12.98;9.38;;;-0.20;99.90;;;;;;5016233;28;20458;-81
2021/01/17 09:24:25;;;;;;;15.02;10.52;;;-0.10;99.90;;;;;;5016901;28;20299;-81
2021/01/17 09:26:52;;;;;;;14.77;10.18;;;0.00;99.90;;;;;;5016923;28;20251;-81
2021/01/17 09:29:24;;;;;;;12.18;8.82;;;-0.10;99.90;;;;;;5016851;28;20205;-80
2021/01/17 09:31:56;;;;;;;12.65;8.43;;;0.00;99.90;;;;;;5017057;28;20243;-82
2021/01/17 09:34:25;;;;;;;13.85;10.38;;;0.00;99.90;;;;;;5016879;28;20296;-82
2021/01/17 09:36:52;;;;;;;10.65;8.10;;;-0.20;99.90;;;;;;5016398;28;20311;-81
2021/01/17 09:39:32;;;;;;;10.90;9.20;;;-0.20;99.90;;;;;;5018922;28;20209;-82
2021/01/17 09:42:00;;;;;;;11.18;8.50;;;-0.30;99.90;;;;;;5016156;28;20276;-82
2021/01/17 09:44:26;;;;;;;12.25;8.48;;;-0.30;99.90;;;;;;5015668;28;20720;-82
2021/01/17 09:46:54;;;;;;;11.10;9.18;;;-0.40;99.90;;;;;;5015808;28;20227;-83
2021/01/17 09:49:25;;;;;;;24.20;9.45;;;-0.40;99.90;;;;;;5016123;28;20222;-83
2021/01/17 09:51:53;;;;;;;13.52;8.98;;;-0.40;99.90;;;;;;5015599;28;20208;-82
2021/01/17 09:54:20;;;;;;;12.57;9.00;;;-0.20;99.90;;;;;;5015237;28;20884;-81
2021/01/17 09:56:46;;;;;;;15.38;9.38;;;-0.10;99.90;;;;;;5097488;22;20562;-82
2021/01/17 09:59:14;;;;;;;12.82;8.55;;;0.10;99.90;;;;;;5083812;28;20366;-82
2021/01/17 10:01:42;;;;;;;12.25;8.35;;;0.00;99.90;;;;;;5084548;28;20285;-80
2021/01/17 10:04:21;;;;;;;14.55;9.68;;;0.00;99.90;;;;;;5083380;28;20207;-82
2021/01/17 10:06:51;;;;;;;22.15;10.30;;;0.10;99.90;;;;;;5095293;28;20226;-82
2021/01/17 10:09:18;;;;;;;18.70;9.95;;;0.10;99.90;;;;;;5101948;28;20193;-82
2021/01/17 10:11:45;;;;;;;18.05;9.80;;;0.00;99.90;;;;;;5101481;28;20204;-82
2021/01/17 10:14:12;;;;;;;14.95;9.50;;;0.10;99.90;;;;;;5108207;28;20232;-80
2021/01/17 10:16:39;;;;;;;15.75;9.80;;;0.20;99.90;;;;;;5107964;28;20217;-79
2021/01/17 10:19:06;;;;;;;15.05;10.80;;;0.20;99.90;;;;;;5108082;28;20213;-79
2021/01/17 10:21:38;;;;;;;17.85;10.52;;;0.10;99.90;;;;;;5102828;28;20465;-83
2021/01/17 10:24:11;;;;;;;20.88;15.60;;;0.10;99.90;;;;;;5098795;28;20940;-82
2021/01/17 10:26:38;;;;;;;18.70;11.90;;;0.10;99.90;;;;;;5098337;28;20808;-82
2021/01/17 10:29:07;;;;;;;18.10;11.40;;;0.20;99.90;;;;;;5098503;28;20390;-82
2021/01/17 10:31:36;;;;;;;22.17;13.13;;;0.30;99.90;;;;;;5098821;28;20227;-81
2021/01/17 10:34:04;;;;;;;19.15;12.18;;;0.30;99.90;;;;;;5100370;28;20210;-81
2021/01/17 10:36:30;;;;;;;20.65;10.10;;;0.20;99.90;;;;;;5103390;28;20217;-80
2021/01/17 10:38:57;;;;;;;18.20;10.77;;;0.20;99.90;;;;;;5101496;28;20216;-81
2021/01/17 10:41:26;;;;;;;16.65;10.65;;;0.30;99.90;;;;;;5102149;28;20284;-82
2021/01/17 10:44:02;;;;;;;20.20;11.23;;;0.30;99.90;;;;;;5108570;28;20208;-80
2021/01/17 10:46:30;;;;;;;22.23;13.20;;;0.40;99.90;;;;;;5111160;28;20225;-82
2021/01/17 10:49:04;;;;;;;31.40;19.83;;;0.40;99.90;;;;;;5102916;28;20292;-82
2021/01/17 10:51:38;;;;;;;22.83;12.05;;;0.40;99.90;;;;;;5101349;28;20550;-82
2021/01/17 10:54:06;;;;;;;23.52;14.25;;;0.20;99.90;;;;;;5101509;28;20682;-82
2021/01/17 10:56:34;;;;;;;21.05;12.63;;;0.40;99.90;;;;;;5100625;28;20293;-81
2021/01/17 10:59:07;;;;;;;17.52;12.32;;;0.40;99.90;;;;;;5099890;28;20616;-81
2021/01/17 11:01:34;;;;;;;20.42;11.57;;;0.50;99.90;;;;;;5102377;28;20593;-82
2021/01/17 11:04:00;;;;;;;18.52;12.13;;;0.60;99.90;;;;;;5103500;28;20214;-82
2021/01/17 11:06:29;;;;;;;16.70;12.18;;;0.50;99.90;;;;;;5098705;28;20221;-84
2021/01/17 11:08:56;;;;;;;18.15;11.13;;;0.50;99.90;;;;;;5099020;28;20208;-82
2021/01/17 11:11:24;;;;;;;21.17;12.68;;;0.40;99.90;;;;;;5099048;28;20198;-82
2021/01/17 11:13:58;;;;;;;21.10;11.80;;;0.60;99.90;;;;;;5099515;28;20615;-82
2021/01/17 11:16:38;;;;;;;17.33;10.85;;;0.50;99.90;;;;;;5099490;28;20316;-82
2021/01/17 11:19:04;;;;;;;15.00;10.70;;;0.50;99.90;;;;;;5099699;28;20235;-83
2021/01/17 11:21:31;;;;;;;17.50;11.02;;;0.50;99.90;;;;;;5102811;28;20225;-79
2021/01/17 11:23:58;;;;;;;18.23;11.10;;;0.60;99.90;;;;;;5111224;28;20209;-80
2021/01/17 11:26:26;;;;;;;16.25;11.57;;;0.70;99.90;;;;;;5110104;28;20293;-80
2021/01/17 11:28:53;;;;;;;16.27;10.70;;;0.80;99.90;;;;;;5107878;28;20205;-82
2021/01/17 11:31:22;;;;;;;15.07;10.27;;;0.80;99.90;;;;;;5104848;28;20201;-81
2021/01/17 11:33:51;;;;;;;20.13;12.32;;;0.80;99.90;;;;;;5106460;28;20210;-81
2021/01/17 11:36:19;;;;;;;19.88;11.82;;;0.90;99.90;;;;;;5105414;28;20217;-80
2021/01/17 11:38:50;;;;;;;15.52;10.70;;;0.90;99.90;;;;;;5101269;28;20209;-83
2021/01/17 11:41:18;;;;;;;18.88;10.48;;;1.00;99.90;;;;;;5099936;28;20206;-82
2021/01/17 11:43:45;;;;;;;18.60;11.75;;;1.00;99.90;;;;;;5099177;28;20221;-82
2021/01/17 11:46:12;;;;;;;17.38;11.95;;;1.10;99.90;;;;;;5099297;28;20249;-82
2021/01/17 11:48:41;;;;;;;16.65;11.60;;;0.90;99.90;;;;;;5098953;28;20254;-82
2021/01/17 11:51:09;;;;;;;19.48;11.93;;;1.00;99.90;;;;;;5099357;28;20237;-82
2021/01/17 11:53:36;;;;;;;18.65;10.98;;;1.20;99.90;;;;;;5098089;28;20226;-82
2021/01/17 11:56:03;;;;;;;17.73;12.07;;;1.10;99.90;;;;;;5097812;28;20229;-82
2021/01/17 11:58:38;;;;;;;16.10;10.15;;;1.10;99.90;;;;;;5097596;28;20681;-82
2021/01/17 12:01:05;;;;;;;16.15;11.40;;;0.90;99.90;;;;;;5098953;28;20693;-82
2021/01/17 12:03:34;;;;;;;19.58;12.25;;;1.00;99.90;;;;;;5098574;28;20229;-82
2021/01/17 12:06:14;;;;;;;19.70;11.43;;;1.30;99.90;;;;;;5097818;28;20221;-81
2021/01/17 12:08:58;;;;;;;18.00;11.43;;;1.30;99.90;;;;;;5098502;28;20189;-81
2021/01/17 12:11:33;;;;;;;15.65;11.48;;;1.20;99.90;;;;;;5099429;28;20182;-82
2021/01/17 12:14:00;;;;;;;19.23;12.00;;;1.30;99.90;;;;;;5099380;28;20292;-81
2021/01/17 12:16:28;;;;;;;13.88;10.93;;;1.40;99.90;;;;;;5104465;28;20222;-80
2021/01/17 12:18:54;;;;;;;21.65;14.05;;;0.90;99.90;;;;;;5111093;28;20284;-80
2021/01/17 12:21:22;;;;;;;19.13;12.85;;;1.00;99.90;;;;;;5108150;28;20229;-82
2021/01/17 12:23:48;;;;;;;18.05;12.60;;;1.10;99.90;;;;;;5099656;28;20686;-82
2021/01/17 12:26:16;;;;;;;19.30;12.88;;;1.20;99.90;;;;;;5098749;28;20230;-83
2021/01/17 12:28:43;;;;;;;21.25;12.63;;;1.30;99.90;;;;;;5100832;28;20282;-85
2021/01/17 12:31:10;;;;;;;17.33;11.90;;;1.50;99.90;;;;;;5102204;28;20655;-83
2021/01/17 12:33:37;;;;;;;18.25;12.38;;;1.30;99.90;;;;;;5103144;28;20273;-83
2021/01/17 12:36:06;;;;;;;17.08;13.00;;;1.10;99.90;;;;;;5098852;28;20721;-82
2021/01/17 12:38:34;;;;;;;20.20;12.75;;;0.90;99.90;;;;;;5100117;28;20288;-83
2021/01/17 12:41:00;;;;;;;16.83;11.95;;;1.00;99.90;;;;;;5110615;28;20232;-82
2021/01/17 12:43:27;;;;;;;19.83;12.35;;;1.00;99.90;;;;;;5111350;28;20229;-82
2021/01/17 12:45:53;;;;;;;23.20;13.15;;;0.90;99.90;;;;;;5111422;28;20747;-82
2021/01/17 12:48:19;;;;;;;19.00;12.25;;;0.80;99.90;;;;;;5106889;28;20253;-81
2021/01/17 12:50:46;;;;;;;20.05;13.32;;;0.60;99.90;;;;;;5111842;28;20221;-81
2021/01/17 12:53:12;;;;;;;23.10;14.10;;;0.80;99.90;;;;;;5112760;28;20237;-81
2021/01/17 12:55:44;;;;;;;25.98;16.17;;;0.90;99.90;;;;;;5104556;28;20308;-82
2021/01/17 12:58:10;;;;;;;21.17;13.70;;;1.00;99.90;;;;;;5100073;28;20713;-83